Time;durP1;ratioP1;P1;durP2;ratioP2;P2;SDS_P1;SDS_P2;PMS_P1;PMS_P2;Temp;Humidity;BMP_temperature;BMP_pressure;BME280_temperature;BME280_humidity;BME280_pressure;Samples;Min_cycle;Max_cycle;Signal;HPM_P1;HPM_P2
2023/12/29 00:02:00;;;;;;;1.60;1.10;;;11.30;98.20;;;;;;6139544;23;20468;-79
2023/12/29 00:04:27;;;;;;;1.60;1.10;;;11.30;98.20;;;;;;6154061;23;20586;-79
2023/12/29 00:06:53;;;;;;;1.50;1.10;;;11.30;98.20;;;;;;6140407;23;21076;-80
2023/12/29 00:09:20;;;;;;;1.57;1.10;;;11.30;98.20;;;;;;6156195;23;20490;-80
2023/12/29 00:11:49;;;;;;;1.60;1.10;;;11.30;98.20;;;;;;6144904;23;20460;-78
2023/12/29 00:14:16;;;;;;;1.70;1.40;;;11.30;98.20;;;;;;6161957;23;20929;-80
2023/12/29 00:16:43;;;;;;;1.60;1.10;;;11.40;98.20;;;;;;6138132;23;20527;-78
2023/12/29 00:19:11;;;;;;;1.60;1.10;;;11.40;98.20;;;;;;6150844;23;20425;-79
2023/12/29 00:21:38;;;;;;;1.60;1.10;;;11.40;98.20;;;;;;6137860;23;20455;-78
2023/12/29 00:24:06;;;;;;;1.57;1.10;;;11.40;98.20;;;;;;6151527;23;20464;-79
2023/12/29 00:26:32;;;;;;;1.60;1.10;;;11.40;98.20;;;;;;6136827;23;20472;-79
2023/12/29 00:29:01;;;;;;;1.50;1.10;;;11.40;98.20;;;;;;6150875;23;20420;-78
2023/12/29 00:31:27;;;;;;;1.57;1.07;;;11.30;98.20;;;;;;6136936;23;20511;-78
2023/12/29 00:33:54;;;;;;;1.60;1.10;;;11.30;98.20;;;;;;6150204;23;20528;-80
2023/12/29 00:36:25;;;;;;;1.57;1.00;;;11.40;98.20;;;;;;6138683;23;20444;-79
2023/12/29 00:38:51;;;;;;;1.60;1.30;;;11.40;98.20;;;;;;6151894;23;20516;-78
2023/12/29 00:41:18;;;;;;;1.50;1.00;;;11.40;98.20;;;;;;6137740;23;20448;-80
2023/12/29 00:43:45;;;;;;;1.60;1.10;;;11.40;98.20;;;;;;6150292;23;20447;-79
2023/12/29 00:46:16;;;;;;;1.60;1.10;;;11.40;98.20;;;;;;6136092;23;20524;-80
2023/12/29 00:48:43;;;;;;;1.53;1.10;;;11.40;98.20;;;;;;6151823;23;20401;-77
2023/12/29 00:51:10;;;;;;;1.50;1.10;;;11.30;98.20;;;;;;6136983;23;20451;-79
2023/12/29 00:53:37;;;;;;;1.50;1.10;;;11.40;98.20;;;;;;6150118;23;20465;-78
2023/12/29 00:56:10;;;;;;;1.53;1.10;;;11.40;98.20;;;;;;6137022;23;20425;-77
2023/12/29 00:58:37;;;;;;;1.53;1.10;;;11.40;98.20;;;;;;6151098;23;20405;-78
2023/12/29 01:01:04;;;;;;;1.53;1.10;;;11.30;98.20;;;;;;6138283;23;20452;-80
2023/12/29 01:03:32;;;;;;;1.60;1.10;;;11.30;98.20;;;;;;6151225;23;20444;-79
2023/12/29 01:05:59;;;;;;;10.00;3.43;;;11.40;98.20;;;;;;6137536;23;20416;-78
2023/12/29 01:08:28;;;;;;;1.50;1.07;;;11.30;98.20;;;;;;6159061;23;20756;-76
2023/12/29 01:10:54;;;;;;;1.57;1.10;;;11.30;98.20;;;;;;6137506;23;20706;-80
2023/12/29 01:13:22;;;;;;;1.60;1.10;;;11.40;98.20;;;;;;6150571;23;20464;-78
2023/12/29 01:15:49;;;;;;;1.60;1.00;;;11.40;98.20;;;;;;6135839;23;20428;-78
2023/12/29 01:18:16;;;;;;;1.57;1.00;;;11.40;98.20;;;;;;6152771;23;20857;-78
2023/12/29 01:20:44;;;;;;;1.50;1.00;;;11.40;98.20;;;;;;6152717;23;20423;-78
2023/12/29 01:23:11;;;;;;;1.50;1.10;;;11.40;98.20;;;;;;6112707;23;20523;-79
2023/12/29 01:25:39;;;;;;;1.57;1.10;;;11.40;98.20;;;;;;6150605;23;20500;-78
2023/12/29 01:28:06;;;;;;;1.50;1.10;;;11.30;98.20;;;;;;6135508;23;20449;-78
2023/12/29 01:30:33;;;;;;;1.50;1.03;;;11.30;98.20;;;;;;6153066;23;20421;-78
2023/12/29 01:33:00;;;;;;;1.50;1.10;;;11.30;98.20;;;;;;6136371;23;20476;-79
2023/12/29 01:35:26;;;;;;;1.53;1.00;;;11.30;98.20;;;;;;6152226;23;20421;-77
2023/12/29 01:37:56;;;;;;;1.60;1.10;;;11.30;98.20;;;;;;6135709;23;20503;-78
2023/12/29 01:40:23;;;;;;;1.57;1.10;;;11.30;98.20;;;;;;6152863;23;20417;-78
2023/12/29 01:42:50;;;;;;;1.60;1.10;;;11.30;98.20;;;;;;6135279;23;20873;-79
2023/12/29 01:45:22;;;;;;;1.53;1.00;;;11.30;98.20;;;;;;6155241;23;20604;-79
2023/12/29 01:47:50;;;;;;;1.50;1.00;;;11.30;98.20;;;;;;6136374;23;20449;-77
2023/12/29 01:50:18;;;;;;;1.53;1.10;;;11.30;98.20;;;;;;6163614;23;20417;-78
2023/12/29 01:52:46;;;;;;;1.60;1.20;;;11.30;98.20;;;;;;6135349;23;21111;-78
2023/12/29 01:55:19;;;;;;;1.60;1.10;;;11.30;98.20;;;;;;6152025;23;20456;-77
2023/12/29 01:57:47;;;;;;;1.57;1.00;;;11.30;98.20;;;;;;6136573;23;20476;-78
2023/12/29 02:00:16;;;;;;;1.60;1.10;;;11.30;98.20;;;;;;6151767;23;20450;-78
2023/12/29 02:02:43;;;;;;;1.57;1.10;;;11.30;98.20;;;;;;6135987;23;20455;-79
2023/12/29 02:05:14;;;;;;;1.60;1.10;;;11.30;98.20;;;;;;6150644;23;20948;-80
2023/12/29 02:07:41;;;;;;;1.57;1.10;;;11.30;98.20;;;;;;6139355;23;20479;-79
2023/12/29 02:10:09;;;;;;;1.53;1.10;;;11.20;98.20;;;;;;6155198;23;20543;-79
2023/12/29 02:12:37;;;;;;;1.60;1.10;;;11.20;98.20;;;;;;6138468;23;20798;-78
2023/12/29 02:15:05;;;;;;;1.60;1.10;;;11.20;98.20;;;;;;6162021;23;20431;-78
2023/12/29 02:17:40;;;;;;;1.57;1.10;;;11.20;98.20;;;;;;6138522;23;20452;-78
2023/12/29 02:20:09;;;;;;;1.60;1.17;;;11.20;98.20;;;;;;6150242;23;20433;-78
2023/12/29 02:22:36;;;;;;;1.60;1.10;;;11.20;98.20;;;;;;6137720;23;20451;-79
2023/12/29 02:25:05;;;;;;;1.57;1.10;;;11.20;98.20;;;;;;6154938;23;20503;-78
2023/12/29 02:27:42;;;;;;;1.60;1.10;;;11.20;98.20;;;;;;6142031;23;20511;-79
2023/12/29 02:30:12;;;;;;;1.53;1.10;;;11.20;98.20;;;;;;6163969;23;20417;-79
2023/12/29 02:32:42;;;;;;;1.53;1.10;;;11.20;98.20;;;;;;6140048;23;20460;-79
2023/12/29 02:35:13;;;;;;;1.70;1.50;;;11.20;98.20;;;;;;6151680;23;20433;-79
2023/12/29 02:37:40;;;;;;;1.60;1.30;;;11.10;98.20;;;;;;6138864;23;20797;-79
2023/12/29 02:40:10;;;;;;;1.50;1.10;;;11.10;98.20;;;;;;6153966;23;20449;-79
2023/12/29 02:42:37;;;;;;;1.57;1.03;;;11.00;98.20;;;;;;6138914;23;20739;-80
2023/12/29 02:45:05;;;;;;;1.57;1.10;;;11.00;98.20;;;;;;6155089;23;20980;-79
2023/12/29 02:47:32;;;;;;;1.77;1.67;;;11.00;98.20;;;;;;6140782;23;20532;-79
2023/12/29 02:49:58;;;;;;;1.60;1.10;;;10.90;98.20;;;;;;6156461;23;20459;-80
2023/12/29 02:52:25;;;;;;;1.57;1.00;;;10.90;98.20;;;;;;6140740;23;20512;-79
2023/12/29 02:54:52;;;;;;;1.53;1.10;;;10.90;98.20;;;;;;6155232;23;20476;-80
2023/12/29 02:57:20;;;;;;;1.53;1.10;;;10.90;98.20;;;;;;6139979;23;20520;-80
2023/12/29 02:59:47;;;;;;;1.57;1.10;;;10.90;98.20;;;;;;6166953;23;20443;-79
2023/12/29 03:02:14;;;;;;;1.53;1.10;;;10.90;98.20;;;;;;6141003;23;20532;-80
2023/12/29 03:04:50;;;;;;;1.57;1.10;;;10.80;98.20;;;;;;6160716;23;20444;-79
2023/12/29 03:07:16;;;;;;;1.50;1.10;;;10.80;98.20;;;;;;6141403;23;20571;-78
2023/12/29 03:09:43;;;;;;;1.60;1.10;;;10.80;98.20;;;;;;6165770;23;20421;-79
2023/12/29 03:12:10;;;;;;;1.53;1.10;;;10.80;98.20;;;;;;6139758;23;20457;-79
2023/12/29 03:14:38;;;;;;;1.60;1.10;;;10.80;98.20;;;;;;6156349;23;20500;-79
2023/12/29 03:17:05;;;;;;;1.60;1.10;;;10.80;98.20;;;;;;6140607;23;20449;-79
2023/12/29 03:19:32;;;;;;;1.53;1.10;;;10.80;98.20;;;;;;6156298;23;20467;-80
2023/12/29 03:21:59;;;;;;;1.60;1.10;;;10.80;98.20;;;;;;6141888;23;20464;-80
2023/12/29 03:24:25;;;;;;;1.50;1.10;;;10.80;98.20;;;;;;6155265;23;20486;-79
2023/12/29 03:26:52;;;;;;;1.53;1.00;;;10.80;98.20;;;;;;6141223;23;20516;-80
2023/12/29 03:29:19;;;;;;;1.57;1.07;;;10.80;98.20;;;;;;6158407;23;20452;-79
2023/12/29 03:31:47;;;;;;;1.60;1.10;;;10.90;98.20;;;;;;6142424;23;20527;-80
2023/12/29 03:34:14;;;;;;;1.50;1.10;;;10.80;98.20;;;;;;6157301;23;20472;-81
2023/12/29 03:36:41;;;;;;;1.57;1.10;;;10.80;98.20;;;;;;6141945;23;20512;-79
2023/12/29 03:39:07;;;;;;;1.50;1.10;;;10.80;98.20;;;;;;6158118;23;20416;-80
2023/12/29 03:41:34;;;;;;;1.60;1.20;;;10.80;98.20;;;;;;6144404;23;20508;-79
2023/12/29 03:44:01;;;;;;;1.53;1.10;;;10.90;98.20;;;;;;6155873;23;20452;-80
2023/12/29 03:46:28;;;;;;;1.57;1.00;;;10.90;98.20;;;;;;6145526;23;20444;-80
2023/12/29 03:48:56;;;;;;;1.60;1.20;;;10.90;98.20;;;;;;6158262;23;20535;-80
2023/12/29 03:51:23;;;;;;;1.60;1.10;;;10.90;98.20;;;;;;6140709;23;20451;-80
2023/12/29 03:53:49;;;;;;;1.60;1.10;;;10.90;98.20;;;;;;6163583;23;21013;-80
2023/12/29 03:56:17;;;;;;;1.53;1.10;;;10.90;98.20;;;;;;6137283;23;20519;-80
2023/12/29 03:58:44;;;;;;;1.53;1.00;;;10.90;98.20;;;;;;6149389;23;20454;-80
2023/12/29 04:01:12;;;;;;;1.57;1.03;;;10.90;98.20;;;;;;6135025;23;20528;-79
2023/12/29 04:03:40;;;;;;;1.60;1.17;;;10.90;98.20;;;;;;6160217;23;20452;-80
2023/12/29 04:06:08;;;;;;;1.57;1.10;;;10.90;98.20;;;;;;6138015;23;20548;-80
2023/12/29 04:08:35;;;;;;;1.60;1.10;;;10.90;98.20;;;;;;6154387;23;20459;-82
2023/12/29 04:11:03;;;;;;;1.50;1.10;;;10.90;98.20;;;;;;6138630;23;20416;-79
2023/12/29 04:13:29;;;;;;;1.53;1.00;;;10.90;98.20;;;;;;6152072;23;20463;-81
2023/12/29 04:15:56;;;;;;;1.50;1.10;;;10.90;98.20;;;;;;6137818;23;20416;-81
2023/12/29 04:18:24;;;;;;;1.53;1.00;;;10.90;98.20;;;;;;6155026;23;20407;-81
2023/12/29 04:20:51;;;;;;;1.50;1.10;;;11.00;98.20;;;;;;6139018;23;20492;-80
2023/12/29 04:23:20;;;;;;;1.57;1.10;;;11.00;98.20;;;;;;6152293;23;20452;-79
2023/12/29 04:25:46;;;;;;;1.53;1.10;;;11.00;98.20;;;;;;6146158;23;20421;-79
2023/12/29 04:28:13;;;;;;;1.53;1.10;;;11.00;98.20;;;;;;6152290;23;20433;-79
2023/12/29 04:30:40;;;;;;;1.60;1.20;;;11.00;98.20;;;;;;6163445;23;20436;-81
2023/12/29 04:33:07;;;;;;;1.53;1.10;;;11.00;98.20;;;;;;6137757;23;20614;-80
2023/12/29 04:35:34;;;;;;;1.60;1.10;;;11.00;98.20;;;;;;6151453;23;20480;-78
2023/12/29 04:38:01;;;;;;;1.53;1.10;;;11.00;98.20;;;;;;6139365;23;20795;-81
2023/12/29 04:40:30;;;;;;;1.53;1.10;;;11.10;98.20;;;;;;6154758;23;20531;-78
2023/12/29 04:42:57;;;;;;;1.57;1.10;;;11.10;98.20;;;;;;6135901;23;20445;-79
2023/12/29 04:45:23;;;;;;;1.60;1.13;;;11.10;98.20;;;;;;6153334;23;20436;-80
2023/12/29 04:47:50;;;;;;;1.60;1.10;;;11.00;98.20;;;;;;6138341;23;20528;-80
2023/12/29 04:50:17;;;;;;;1.50;1.00;;;11.00;98.20;;;;;;6156813;23;20480;-81
2023/12/29 04:52:44;;;;;;;1.53;1.00;;;11.00;98.20;;;;;;6138470;23;20472;-80
2023/12/29 04:55:12;;;;;;;1.50;1.00;;;11.00;98.20;;;;;;6154557;23;20427;-81
2023/12/29 04:57:41;;;;;;;1.57;1.10;;;10.90;98.20;;;;;;6138518;23;20448;-80
2023/12/29 05:00:08;;;;;;;1.57;1.13;;;10.90;98.20;;;;;;6155074;23;20839;-81
2023/12/29 05:02:36;;;;;;;1.60;1.10;;;10.90;98.20;;;;;;6138875;23;20471;-79
2023/12/29 05:05:03;;;;;;;1.60;1.10;;;10.90;98.20;;;;;;6155791;23;20806;-78
2023/12/29 05:07:29;;;;;;;1.53;1.10;;;10.90;98.20;;;;;;6138587;23;20476;-80
2023/12/29 05:09:56;;;;;;;1.60;1.10;;;10.80;98.20;;;;;;6154566;23;20515;-80
2023/12/29 05:12:23;;;;;;;1.50;1.10;;;10.80;98.20;;;;;;6139169;23;20577;-80
2023/12/29 05:14:51;;;;;;;1.57;1.10;;;10.80;98.20;;;;;;6154893;23;20416;-81
2023/12/29 05:17:18;;;;;;;1.53;1.00;;;10.80;98.20;;;;;;6140772;23;20455;-80
2023/12/29 05:19:45;;;;;;;1.83;1.60;;;10.80;98.20;;;;;;6155877;23;20484;-81
2023/12/29 05:24:50;;;;;;;1.60;1.20;;;10.80;98.20;;;;;;6143705;23;20424;-79
2023/12/29 05:27:17;;;;;;;2.17;1.50;;;10.80;98.20;;;;;;6134297;23;20615;-78
2023/12/29 05:29:44;;;;;;;1.50;1.10;;;10.80;98.20;;;;;;6149964;23;20452;-79
2023/12/29 05:32:12;;;;;;;1.53;1.10;;;10.80;98.20;;;;;;6133177;23;20459;-78
2023/12/29 05:34:39;;;;;;;1.60;1.10;;;10.70;98.20;;;;;;6148876;23;20516;-77
2023/12/29 05:37:06;;;;;;;1.60;1.20;;;10.70;98.20;;;;;;6134354;23;20459;-78
2023/12/29 05:39:32;;;;;;;1.60;1.10;;;10.70;98.20;;;;;;6148695;23;20511;-77
2023/12/29 05:41:59;;;;;;;1.60;1.10;;;10.70;98.20;;;;;;6134400;23;20483;-78
2023/12/29 05:44:26;;;;;;;1.57;1.10;;;10.70;98.20;;;;;;6148946;23;21150;-77
2023/12/29 05:46:54;;;;;;;1.57;1.10;;;10.70;98.20;;;;;;6135370;23;20456;-77
2023/12/29 05:49:25;;;;;;;1.60;1.20;;;10.70;98.20;;;;;;6150759;23;20440;-78
2023/12/29 05:51:52;;;;;;;1.50;1.00;;;10.70;98.20;;;;;;6134910;23;20613;-78
2023/12/29 05:54:19;;;;;;;1.53;1.10;;;10.60;98.20;;;;;;6149139;23;20504;-78
2023/12/29 05:56:45;;;;;;;1.60;1.10;;;10.60;98.20;;;;;;6135023;23;20785;-77
2023/12/29 05:59:12;;;;;;;1.60;1.13;;;10.60;98.20;;;;;;6149744;23;20949;-77
2023/12/29 06:01:39;;;;;;;1.60;1.10;;;10.60;98.20;;;;;;6135039;23;20769;-77
2023/12/29 06:04:06;;;;;;;1.60;1.10;;;10.60;98.20;;;;;;6149432;23;20619;-78
2023/12/29 06:06:34;;;;;;;1.53;1.00;;;10.60;98.20;;;;;;6135312;23;20449;-78
2023/12/29 06:09:01;;;;;;;1.57;1.10;;;10.60;98.20;;;;;;6149975;23;20452;-77
2023/12/29 06:11:28;;;;;;;1.57;1.07;;;10.60;98.20;;;;;;6135827;23;20527;-78
2023/12/29 06:13:55;;;;;;;1.57;1.10;;;10.60;98.20;;;;;;6149082;23;20448;-78
2023/12/29 06:16:22;;;;;;;1.60;1.10;;;10.50;98.20;;;;;;6135795;23;20669;-78
2023/12/29 06:18:49;;;;;;;1.60;1.10;;;10.50;98.20;;;;;;6149400;23;20405;-77
2023/12/29 06:21:15;;;;;;;1.60;1.10;;;10.50;98.20;;;;;;6135859;23;20868;-78
2023/12/29 06:23:44;;;;;;;1.57;1.10;;;10.50;98.20;;;;;;6146601;23;20487;-77
2023/12/29 06:26:17;;;;;;;1.60;1.10;;;10.50;98.20;;;;;;6136150;23;20531;-78
2023/12/29 06:28:44;;;;;;;1.60;1.10;;;10.50;98.20;;;;;;6149434;23;20720;-78
2023/12/29 06:31:11;;;;;;;1.50;1.10;;;10.50;98.20;;;;;;6135363;23;20445;-77
2023/12/29 06:33:41;;;;;;;1.57;1.10;;;10.50;98.20;;;;;;6150033;23;20512;-78
2023/12/29 06:36:08;;;;;;;1.53;1.10;;;10.50;98.20;;;;;;6134577;23;20516;-77
2023/12/29 06:38:35;;;;;;;1.60;1.13;;;10.50;98.20;;;;;;6146340;23;20420;-77
2023/12/29 06:41:04;;;;;;;1.53;1.10;;;10.60;98.20;;;;;;6135332;23;20749;-77
2023/12/29 06:43:31;;;;;;;1.53;1.10;;;10.60;98.20;;;;;;6147628;23;20492;-78
2023/12/29 06:45:58;;;;;;;1.60;1.10;;;10.60;98.20;;;;;;6135304;23;20779;-77
2023/12/29 06:48:25;;;;;;;1.57;1.10;;;10.60;98.20;;;;;;6149150;23;20445;-78
2023/12/29 06:50:52;;;;;;;1.53;1.10;;;10.60;98.20;;;;;;6134797;23;20500;-78
2023/12/29 06:53:19;;;;;;;1.60;1.20;;;10.60;98.20;;;;;;6147164;23;20524;-78
2023/12/29 06:55:46;;;;;;;1.53;1.10;;;10.60;98.20;;;;;;6148457;23;20453;-78
2023/12/29 06:58:14;;;;;;;1.60;1.10;;;10.60;98.20;;;;;;6146431;23;20952;-78
2023/12/29 07:00:41;;;;;;;1.60;1.10;;;10.60;98.20;;;;;;6150808;23;20496;-77
2023/12/29 07:03:07;;;;;;;1.60;1.20;;;10.60;98.20;;;;;;6133625;23;21094;-77
2023/12/29 07:05:34;;;;;;;1.60;1.13;;;10.70;98.20;;;;;;6148305;23;20504;-77
2023/12/29 07:08:01;;;;;;;1.57;1.00;;;10.60;98.20;;;;;;6133847;23;20476;-77
2023/12/29 07:10:28;;;;;;;1.50;1.00;;;10.70;98.20;;;;;;6150451;23;20459;-78
2023/12/29 07:12:55;;;;;;;1.60;1.10;;;10.70;98.20;;;;;;6134790;23;20456;-78
2023/12/29 07:15:23;;;;;;;1.50;1.10;;;10.70;98.20;;;;;;6149518;23;20818;-79
2023/12/29 07:17:50;;;;;;;1.53;1.10;;;10.70;98.20;;;;;;6133836;23;20905;-78
2023/12/29 07:20:17;;;;;;;2.17;1.93;;;10.70;98.20;;;;;;6150712;23;20637;-77
2023/12/29 07:22:44;;;;;;;1.57;1.10;;;10.70;98.20;;;;;;6134270;23;20452;-77
2023/12/29 07:25:11;;;;;;;8.27;7.60;;;10.80;98.20;;;;;;6148625;23;20953;-78
2023/12/29 07:27:38;;;;;;;1.53;1.10;;;10.80;98.20;;;;;;6134449;23;20452;-79
2023/12/29 07:30:05;;;;;;;1.57;1.10;;;10.80;98.20;;;;;;6150344;23;20460;-78
2023/12/29 07:32:34;;;;;;;1.60;1.20;;;10.80;98.20;;;;;;6134555;23;20507;-78
2023/12/29 07:35:00;;;;;;;1.60;1.20;;;10.80;98.20;;;;;;6148628;23;20436;-78
2023/12/29 07:37:27;;;;;;;1.57;1.10;;;10.80;98.20;;;;;;6134198;23;20480;-78
2023/12/29 07:39:54;;;;;;;1.57;1.10;;;10.90;98.20;;;;;;6149799;23;20753;-78
2023/12/29 07:42:21;;;;;;;1.60;1.10;;;10.90;98.20;;;;;;6134338;23;20457;-78
2023/12/29 07:44:48;;;;;;;1.50;1.10;;;10.90;98.20;;;;;;6148603;23;20528;-78
2023/12/29 07:47:15;;;;;;;1.57;1.10;;;10.90;98.20;;;;;;6136369;23;20524;-79
2023/12/29 07:49:44;;;;;;;1.53;1.10;;;10.90;98.20;;;;;;6150376;23;20503;-78
2023/12/29 07:52:10;;;;;;;1.60;1.20;;;10.90;98.20;;;;;;6133838;23;20487;-78
2023/12/29 07:54:37;;;;;;;1.53;1.10;;;10.90;98.20;;;;;;6148890;23;20461;-78
2023/12/29 07:57:05;;;;;;;1.57;1.00;;;10.90;98.20;;;;;;6137279;23;20448;-77
2023/12/29 07:59:31;;;;;;;1.60;1.40;;;10.90;98.20;;;;;;6154017;23;20489;-78
2023/12/29 08:01:58;;;;;;;1.57;1.10;;;10.80;98.20;;;;;;6141537;23;20448;-78
2023/12/29 08:04:25;;;;;;;1.57;1.03;;;10.80;98.20;;;;;;6154624;23;20540;-78
2023/12/29 08:06:53;;;;;;;1.60;1.10;;;10.70;98.20;;;;;;6137046;23;20480;-77
2023/12/29 08:09:20;;;;;;;1.53;1.10;;;10.70;98.20;;;;;;6150730;23;20421;-78
2023/12/29 08:11:48;;;;;;;1.60;1.10;;;10.60;98.20;;;;;;6136516;23;20448;-78
2023/12/29 08:14:14;;;;;;;1.57;1.20;;;10.60;98.20;;;;;;6152388;23;20468;-78
2023/12/29 08:16:41;;;;;;;1.57;1.10;;;10.50;98.20;;;;;;6138107;23;20449;-79
2023/12/29 08:19:09;;;;;;;1.60;1.10;;;10.50;98.20;;;;;;6154426;23;20417;-78
2023/12/29 08:21:36;;;;;;;1.60;1.20;;;10.50;98.20;;;;;;6144695;23;20472;-78
2023/12/29 08:24:05;;;;;;;1.53;1.10;;;10.50;98.20;;;;;;6159015;23;20448;-78
2023/12/29 08:26:31;;;;;;;1.53;1.10;;;10.40;98.20;;;;;;6145240;23;20449;-79
2023/12/29 08:28:58;;;;;;;1.57;1.10;;;10.40;98.20;;;;;;6156807;23;20427;-77
2023/12/29 08:31:26;;;;;;;1.60;1.20;;;10.40;98.20;;;;;;6144343;23;20537;-78
2023/12/29 08:33:53;;;;;;;1.57;1.10;;;10.30;98.20;;;;;;6154896;23;20432;-77
2023/12/29 08:36:21;;;;;;;1.53;1.10;;;10.30;98.20;;;;;;6141826;23;20445;-77
2023/12/29 08:38:48;;;;;;;1.57;1.10;;;10.30;98.20;;;;;;6153649;23;20500;-78
2023/12/29 08:41:18;;;;;;;1.57;1.10;;;10.30;98.20;;;;;;6140086;23;20946;-78
2023/12/29 08:43:45;;;;;;;1.60;1.10;;;10.20;98.20;;;;;;6157669;23;21022;-78
2023/12/29 08:46:12;;;;;;;1.57;1.10;;;10.20;98.20;;;;;;6141119;23;20449;-77
2023/12/29 08:48:39;;;;;;;1.60;1.10;;;10.20;98.20;;;;;;6157113;23;20423;-77
2023/12/29 08:51:06;;;;;;;1.50;1.00;;;10.20;98.20;;;;;;6142533;23;20416;-78
2023/12/29 08:53:35;;;;;;;1.53;1.10;;;10.20;98.20;;;;;;6155470;23;20452;-78
2023/12/29 08:56:02;;;;;;;1.60;1.10;;;10.20;98.20;;;;;;6148205;23;20421;-79
2023/12/29 08:58:32;;;;;;;1.60;1.20;;;10.20;98.20;;;;;;6161052;23;20488;-78
2023/12/29 09:00:59;;;;;;;1.60;1.10;;;10.20;98.20;;;;;;6148779;23;20469;-80
2023/12/29 09:03:25;;;;;;;1.53;1.07;;;10.20;98.20;;;;;;6165371;23;20477;-80
2023/12/29 09:05:52;;;;;;;1.60;1.10;;;10.20;98.20;;;;;;6151146;23;20536;-78
2023/12/29 09:08:19;;;;;;;1.60;1.10;;;10.20;98.20;;;;;;6161972;23;20516;-79
2023/12/29 09:10:46;;;;;;;1.53;1.07;;;10.10;98.20;;;;;;6164345;23;20425;-79
2023/12/29 09:13:13;;;;;;;1.60;1.20;;;10.10;98.20;;;;;;6123762;23;20443;-78
2023/12/29 09:15:41;;;;;;;1.50;1.10;;;10.10;98.20;;;;;;6163415;23;20475;-78
2023/12/29 09:18:07;;;;;;;1.60;1.20;;;10.10;98.20;;;;;;6145482;23;20973;-78
2023/12/29 09:20:35;;;;;;;1.53;1.10;;;10.10;98.20;;;;;;6156634;23;20496;-78
2023/12/29 09:23:03;;;;;;;1.53;1.10;;;10.10;98.20;;;;;;6140987;23;20531;-78
2023/12/29 09:25:30;;;;;;;1.50;1.10;;;10.10;98.20;;;;;;6156762;23;20429;-78
2023/12/29 09:27:56;;;;;;;1.57;1.10;;;10.20;98.20;;;;;;6137135;23;20468;-77
2023/12/29 09:30:23;;;;;;;1.60;1.20;;;10.20;98.20;;;;;;6143781;23;20429;-77
2023/12/29 09:32:52;;;;;;;1.60;1.10;;;10.30;98.20;;;;;;6129676;23;20519;-77
2023/12/29 09:35:20;;;;;;;1.53;1.10;;;10.30;98.20;;;;;;6148134;23;20417;-77
2023/12/29 09:37:48;;;;;;;1.57;1.10;;;10.30;98.20;;;;;;6133606;23;20449;-77
2023/12/29 09:40:15;;;;;;;1.57;1.10;;;10.30;98.20;;;;;;6156931;23;20447;-77
2023/12/29 09:42:45;;;;;;;1.60;1.10;;;10.30;98.20;;;;;;6133348;23;20456;-77
2023/12/29 09:45:13;;;;;;;1.53;1.10;;;10.30;98.20;;;;;;6147508;23;20483;-78
2023/12/29 09:47:42;;;;;;;1.60;1.20;;;10.30;98.20;;;;;;6133339;23;20449;-78
2023/12/29 09:50:12;;;;;;;1.53;1.10;;;10.30;98.20;;;;;;6148331;23;20767;-77
2023/12/29 09:52:40;;;;;;;1.53;1.10;;;10.40;98.20;;;;;;6137618;23;20452;-78
2023/12/29 09:55:11;;;;;;;1.53;1.10;;;10.40;98.20;;;;;;6155680;23;20424;-78
2023/12/29 09:57:38;;;;;;;1.53;1.10;;;10.40;98.20;;;;;;6134541;23;20520;-77
2023/12/29 10:00:07;;;;;;;1.57;1.10;;;10.40;98.20;;;;;;6150545;23;20771;-77
2023/12/29 10:02:35;;;;;;;1.53;1.10;;;10.50;98.20;;;;;;6134678;23;20452;-78
2023/12/29 10:05:05;;;;;;;1.57;1.10;;;10.60;98.20;;;;;;6145283;23;20861;-78
2023/12/29 10:07:38;;;;;;;1.57;1.00;;;10.60;98.20;;;;;;6128325;23;20899;-78
2023/12/29 10:10:12;;;;;;;1.57;1.10;;;10.70;98.20;;;;;;6145379;23;20405;-79
2023/12/29 10:12:40;;;;;;;1.50;1.10;;;10.70;98.20;;;;;;6129915;23;20513;-78
2023/12/29 10:15:18;;;;;;;1.60;1.13;;;10.70;98.20;;;;;;6142795;23;21074;-79
2023/12/29 10:17:52;;;;;;;1.57;1.03;;;10.80;98.20;;;;;;6129126;23;20459;-78
2023/12/29 10:21:00;;;;;;;1.60;1.10;;;10.80;98.20;;;;;;6146846;23;21027;-79
2023/12/29 10:23:35;;;;;;;1.57;1.17;;;10.90;98.20;;;;;;6075307;23;20440;-79
2023/12/29 10:26:02;;;;;;;1.57;1.03;;;10.90;98.20;;;;;;6129058;23;20872;-79
2023/12/29 10:28:30;;;;;;;1.57;1.00;;;11.00;98.20;;;;;;6143617;23;20440;-78
2023/12/29 10:30:57;;;;;;;1.57;1.00;;;11.10;98.20;;;;;;6130812;23;20417;-78
2023/12/29 10:33:25;;;;;;;1.53;1.10;;;11.10;98.20;;;;;;6141517;23;20441;-78
2023/12/29 10:36:02;;;;;;;1.60;1.10;;;11.10;98.20;;;;;;6130419;23;20441;-77
2023/12/29 10:38:30;;;;;;;1.53;1.00;;;11.20;98.20;;;;;;6144490;23;20831;-78
2023/12/29 10:41:12;;;;;;;1.57;1.10;;;11.20;98.20;;;;;;6130415;23;20495;-78
2023/12/29 10:43:39;;;;;;;1.50;1.00;;;11.20;98.20;;;;;;6142919;23;20468;-77
2023/12/29 10:46:10;;;;;;;1.60;1.10;;;11.30;98.20;;;;;;6138051;23;20795;-80
2023/12/29 10:48:39;;;;;;;1.53;1.00;;;11.30;98.20;;;;;;6147140;23;20499;-78
2023/12/29 10:51:06;;;;;;;1.60;1.10;;;11.40;98.20;;;;;;6140477;23;20471;-83
2023/12/29 10:53:36;;;;;;;1.50;1.00;;;11.40;98.20;;;;;;6153839;23;20433;-78
2023/12/29 10:56:03;;;;;;;1.57;1.10;;;11.50;98.20;;;;;;6129987;23;20825;-78
2023/12/29 10:58:37;;;;;;;1.53;1.00;;;11.60;98.20;;;;;;6144369;23;20922;-78
2023/12/29 11:01:19;;;;;;;1.60;1.20;;;11.70;98.20;;;;;;6130553;23;20766;-79
2023/12/29 11:03:57;;;;;;;1.60;1.10;;;11.80;98.20;;;;;;6142752;23;20814;-79
2023/12/29 11:06:24;;;;;;;1.60;1.20;;;11.90;98.20;;;;;;6130254;23;20459;-78
2023/12/29 11:08:52;;;;;;;1.60;1.00;;;12.10;98.20;;;;;;6143918;23;20420;-79
2023/12/29 11:11:20;;;;;;;1.60;1.00;;;12.20;98.20;;;;;;6129389;23;20522;-80
2023/12/29 11:13:48;;;;;;;1.60;1.10;;;12.20;98.20;;;;;;6142472;23;20445;-79
2023/12/29 11:16:21;;;;;;;1.60;1.07;;;12.20;98.20;;;;;;6136740;23;20449;-79
2023/12/29 11:18:50;;;;;;;1.57;1.00;;;12.20;98.20;;;;;;6156301;23;20401;-78
2023/12/29 11:21:18;;;;;;;2.20;1.90;;;12.20;98.20;;;;;;6131408;23;20448;-78
2023/12/29 11:23:45;;;;;;;1.57;1.00;;;12.20;98.20;;;;;;6143140;23;20452;-79
2023/12/29 11:26:13;;;;;;;1.60;1.00;;;12.20;98.20;;;;;;6128866;23;20794;-79
2023/12/29 11:28:41;;;;;;;1.60;1.00;;;12.10;98.20;;;;;;6143961;23;20425;-78
2023/12/29 11:31:08;;;;;;;1.60;1.10;;;12.10;98.20;;;;;;6128426;23;20843;-79
2023/12/29 11:33:42;;;;;;;1.60;1.10;;;12.10;98.20;;;;;;6142392;23;20826;-76
2023/12/29 11:36:16;;;;;;;1.60;1.00;;;12.10;98.20;;;;;;6129372;23;20843;-80
2023/12/29 11:38:54;;;;;;;1.57;1.00;;;12.10;98.20;;;;;;6145008;23;20662;-78
2023/12/29 11:41:31;;;;;;;1.60;1.10;;;12.10;98.20;;;;;;6129265;23;20448;-79
2023/12/29 11:43:59;;;;;;;1.60;1.10;;;12.00;98.20;;;;;;6143137;23;20547;-79
2023/12/29 11:46:37;;;;;;;1.60;1.10;;;12.00;98.20;;;;;;6136889;23;20492;-79
2023/12/29 11:49:04;;;;;;;1.53;1.00;;;12.00;98.20;;;;;;6145283;23;20425;-79
2023/12/29 11:51:33;;;;;;;1.57;1.00;;;12.00;98.20;;;;;;6128111;23;20452;-77
2023/12/29 11:54:01;;;;;;;1.60;1.10;;;12.00;98.20;;;;;;6142306;23;20441;-79
2023/12/29 11:56:34;;;;;;;1.53;1.00;;;12.00;98.20;;;;;;6128413;23;20463;-78
2023/12/29 11:59:18;;;;;;;1.60;1.10;;;12.00;98.20;;;;;;6149022;23;20751;-77
2023/12/29 12:01:48;;;;;;;1.53;1.00;;;12.00;98.20;;;;;;6138427;23;20453;-78
2023/12/29 12:04:41;;;;;;;1.60;1.10;;;12.00;98.20;;;;;;6153436;23;20468;-78
2023/12/29 12:07:10;;;;;;;1.57;1.00;;;11.90;98.20;;;;;;6129728;23;20452;-79
2023/12/29 12:09:38;;;;;;;1.57;1.00;;;11.90;98.20;;;;;;6154483;23;20762;-76
2023/12/29 12:12:07;;;;;;;1.60;1.10;;;11.90;98.20;;;;;;6129970;23;20452;-80
2023/12/29 12:14:51;;;;;;;1.60;1.20;;;11.90;98.20;;;;;;6141809;23;20441;-78
2023/12/29 12:17:35;;;;;;;1.53;1.10;;;11.90;98.20;;;;;;6128350;23;20453;-79
2023/12/29 12:20:08;;;;;;;1.60;1.10;;;12.00;98.20;;;;;;6141301;23;20941;-78
2023/12/29 12:22:37;;;;;;;1.60;1.00;;;12.00;98.20;;;;;;6130582;23;20452;-79
2023/12/29 12:25:06;;;;;;;1.60;1.10;;;12.00;98.20;;;;;;6153656;23;20544;-78
2023/12/29 12:27:39;;;;;;;1.53;1.00;;;12.00;98.20;;;;;;6129167;23;20487;-78
2023/12/29 12:30:09;;;;;;;1.53;1.00;;;12.00;98.20;;;;;;6154675;23;20686;-79
2023/12/29 12:32:36;;;;;;;1.57;1.00;;;12.00;98.20;;;;;;6131961;23;20523;-79
2023/12/29 12:35:05;;;;;;;1.60;1.10;;;11.90;98.20;;;;;;6144933;23;20428;-78
2023/12/29 12:37:32;;;;;;;1.57;1.00;;;11.90;98.20;;;;;;6127993;23;20858;-79
2023/12/29 12:39:59;;;;;;;1.57;1.00;;;11.90;98.20;;;;;;6156126;23;20432;-78
2023/12/29 12:42:26;;;;;;;1.57;1.00;;;11.80;98.20;;;;;;6128356;23;20453;-78
2023/12/29 12:45:11;;;;;;;1.60;1.20;;;11.80;98.20;;;;;;6143513;23;20420;-78
2023/12/29 12:47:44;;;;;;;1.60;1.10;;;11.80;98.20;;;;;;6129450;23;20460;-78
2023/12/29 12:50:12;;;;;;;1.50;1.00;;;11.70;98.20;;;;;;6144527;23;21163;-78
2023/12/29 12:52:41;;;;;;;1.60;1.00;;;11.70;98.20;;;;;;6128446;23;20484;-78
2023/12/29 12:55:09;;;;;;;1.57;1.00;;;11.70;98.20;;;;;;6150637;23;20448;-76
2023/12/29 12:57:38;;;;;;;1.60;1.00;;;11.70;98.20;;;;;;6126646;23;20546;-79